Time;durP1;ratioP1;P1;durP2;ratioP2;P2;SDS_P1;SDS_P2;PMS_P1;PMS_P2;Temp;Humidity;BMP_temperature;BMP_pressure;BME280_temperature;BME280_humidity;BME280_pressure;Samples;Min_cycle;Max_cycle;Signal;HPM_P1;HPM_P2
2023/04/21 00:00:23;;;;;;;10.03;7.67;;;5.80;99.90;;;;;;5071286;28;20853;-72
2023/04/21 00:02:48;;;;;;;12.53;7.83;;;5.70;99.90;;;;;;5072532;28;20456;-73
2023/04/21 00:05:14;;;;;;;11.60;7.30;;;5.70;99.90;;;;;;5072380;28;20179;-72
2023/04/21 00:07:40;;;;;;;9.07;7.47;;;5.70;99.90;;;;;;5072626;28;20587;-72
2023/04/21 00:10:10;;;;;;;7.80;6.30;;;5.70;99.90;;;;;;5070979;28;20191;-73
2023/04/21 00:12:36;;;;;;;8.87;6.47;;;5.60;99.90;;;;;;5072458;28;20560;-72
2023/04/21 00:15:02;;;;;;;7.90;7.00;;;5.50;99.90;;;;;;5072291;28;20571;-71
2023/04/21 00:17:27;;;;;;;8.30;6.97;;;5.50;99.90;;;;;;5072461;28;20421;-72
2023/04/21 00:19:53;;;;;;;8.97;5.73;;;5.50;99.90;;;;;;5072289;28;20988;-71
2023/04/21 00:22:20;;;;;;;7.63;6.43;;;5.40;99.90;;;;;;5087858;28;20187;-72
2023/04/21 00:24:46;;;;;;;7.90;5.57;;;5.40;99.90;;;;;;5072013;28;20385;-72
2023/04/21 00:27:12;;;;;;;6.83;5.60;;;5.40;99.90;;;;;;5072192;28;20524;-72
2023/04/21 00:29:39;;;;;;;7.53;6.00;;;5.40;99.90;;;;;;5072205;28;20773;-72
2023/04/21 00:32:07;;;;;;;10.13;5.80;;;5.30;99.90;;;;;;5072672;28;20468;-73
2023/04/21 00:34:33;;;;;;;7.90;5.43;;;5.30;99.90;;;;;;5072587;28;20857;-72
2023/04/21 00:36:59;;;;;;;8.03;5.90;;;5.30;99.90;;;;;;5073058;28;20940;-72
2023/04/21 00:39:24;;;;;;;5.93;5.00;;;5.30;99.90;;;;;;5072782;28;20440;-72
2023/04/21 00:41:50;;;;;;;6.50;5.23;;;5.20;99.90;;;;;;5071204;28;20191;-72
2023/04/21 00:44:16;;;;;;;8.40;6.57;;;5.30;99.90;;;;;;5072054;28;20214;-71
2023/04/21 00:46:42;;;;;;;7.00;5.93;;;5.20;99.90;;;;;;5072885;28;20610;-71
2023/04/21 00:49:08;;;;;;;9.23;6.73;;;5.20;99.90;;;;;;5072978;28;20265;-72
2023/04/21 00:51:35;;;;;;;10.53;7.07;;;5.20;99.90;;;;;;5071662;28;20530;-71
2023/04/21 00:54:05;;;;;;;8.83;6.20;;;5.10;99.90;;;;;;5071538;28;20991;-72
2023/04/21 00:56:33;;;;;;;7.47;6.07;;;5.10;99.90;;;;;;5071551;28;20421;-71
2023/04/21 00:59:00;;;;;;;10.82;6.07;;;5.00;99.90;;;;;;5071516;28;20413;-71
2023/04/21 01:01:28;;;;;;;8.43;5.97;;;4.80;99.90;;;;;;5071432;28;20197;-71
2023/04/21 01:03:58;;;;;;;10.07;7.22;;;4.60;99.90;;;;;;5071211;28;20785;-72
2023/04/21 01:06:24;;;;;;;15.03;6.30;;;4.60;99.90;;;;;;5071465;28;20194;-72
2023/04/21 01:08:52;;;;;;;8.83;6.60;;;4.60;99.90;;;;;;5071202;28;20767;-72
2023/04/21 01:11:17;;;;;;;7.73;6.40;;;4.60;99.90;;;;;;5070357;28;20455;-72
2023/04/21 01:13:43;;;;;;;7.23;6.00;;;4.50;99.90;;;;;;5071083;28;20445;-72
2023/04/21 01:16:15;;;;;;;8.97;7.10;;;4.50;99.90;;;;;;5070945;28;20677;-72
2023/04/21 01:18:41;;;;;;;7.47;6.40;;;4.50;99.90;;;;;;5071137;28;20264;-72
2023/04/21 01:21:07;;;;;;;8.00;6.40;;;4.50;99.90;;;;;;5071149;28;20330;-72
2023/04/21 01:23:33;;;;;;;7.67;6.87;;;4.50;99.90;;;;;;5070850;28;20707;-72
2023/04/21 01:25:58;;;;;;;9.90;7.23;;;4.40;99.90;;;;;;5070938;28;20421;-72
2023/04/21 01:28:25;;;;;;;9.50;6.80;;;4.50;99.90;;;;;;5071095;28;20269;-72
2023/04/21 01:30:51;;;;;;;8.60;6.80;;;4.50;99.90;;;;;;5070515;28;20207;-72
2023/04/21 01:33:18;;;;;;;8.83;6.97;;;4.50;99.90;;;;;;5070972;28;20842;-72
2023/04/21 01:35:44;;;;;;;11.03;7.40;;;4.40;99.90;;;;;;5070833;28;20556;-72
2023/04/21 01:38:10;;;;;;;9.20;6.82;;;4.30;99.90;;;;;;5069289;28;20425;-72
2023/04/21 01:40:37;;;;;;;12.00;7.93;;;4.20;99.90;;;;;;5070586;28;20636;-73
2023/04/21 01:43:02;;;;;;;10.60;6.90;;;4.10;99.90;;;;;;5070451;28;20474;-73
2023/04/21 01:45:32;;;;;;;9.30;6.70;;;4.10;99.90;;;;;;5069137;28;20448;-73
2023/04/21 01:47:57;;;;;;;12.48;8.13;;;4.10;99.90;;;;;;5070691;28;20416;-73
2023/04/21 01:50:23;;;;;;;11.73;7.70;;;4.00;99.90;;;;;;5070575;28;20244;-73
2023/04/21 01:52:48;;;;;;;10.63;7.87;;;4.10;99.90;;;;;;5070447;28;20361;-73
2023/04/21 01:55:14;;;;;;;11.33;8.27;;;4.00;99.90;;;;;;5070523;28;20623;-72
2023/04/21 01:57:40;;;;;;;9.30;7.70;;;4.10;99.90;;;;;;5070559;28;20189;-72
2023/04/21 02:00:08;;;;;;;12.47;7.90;;;4.00;99.90;;;;;;5070419;28;20812;-72
2023/04/21 02:02:33;;;;;;;13.17;6.87;;;4.00;99.90;;;;;;5070709;28;20424;-73
2023/04/21 02:04:59;;;;;;;12.73;8.60;;;4.00;99.90;;;;;;5070562;28;20854;-72
2023/04/21 02:07:24;;;;;;;14.80;8.70;;;4.00;99.90;;;;;;5069255;28;20276;-72
2023/04/21 02:09:50;;;;;;;12.63;8.37;;;3.90;99.90;;;;;;5070761;28;20219;-72
2023/04/21 02:12:16;;;;;;;13.10;8.70;;;3.90;99.90;;;;;;5069276;28;20222;-71
2023/04/21 02:14:41;;;;;;;14.17;10.07;;;3.80;99.90;;;;;;5070702;28;20717;-73
2023/04/21 02:17:07;;;;;;;13.80;8.40;;;3.80;99.90;;;;;;5070766;28;20654;-72
2023/04/21 02:19:32;;;;;;;14.30;9.07;;;3.90;99.90;;;;;;5070656;28;20221;-72
2023/04/21 02:21:58;;;;;;;12.33;8.90;;;4.00;99.90;;;;;;5070341;28;20181;-72
2023/04/21 02:24:24;;;;;;;12.53;8.93;;;3.90;99.90;;;;;;5069426;28;20220;-72
2023/04/21 02:26:49;;;;;;;13.30;8.47;;;3.80;99.90;;;;;;5070136;28;20192;-72
2023/04/21 02:29:15;;;;;;;18.03;9.77;;;3.90;99.90;;;;;;5068776;28;20423;-72
2023/04/21 02:31:41;;;;;;;11.87;7.83;;;3.80;99.90;;;;;;5070004;28;20682;-71
2023/04/21 02:34:07;;;;;;;14.63;8.97;;;3.80;99.90;;;;;;5069906;28;20240;-71
2023/04/21 02:36:33;;;;;;;14.88;8.98;;;3.60;99.90;;;;;;5069656;28;20678;-71
2023/04/21 02:38:58;;;;;;;12.90;7.80;;;3.50;99.90;;;;;;5069485;28;20185;-71
2023/04/21 02:41:24;;;;;;;13.27;8.40;;;3.50;99.90;;;;;;5069617;28;20196;-71
2023/04/21 02:43:49;;;;;;;12.60;9.00;;;3.50;99.90;;;;;;5069503;28;20311;-71
2023/04/21 02:46:15;;;;;;;14.40;8.80;;;3.40;99.90;;;;;;5069433;28;20557;-71
2023/04/21 02:48:40;;;;;;;12.87;8.17;;;3.40;99.90;;;;;;5069353;28;20238;-71
2023/04/21 02:51:14;;;;;;;10.87;8.23;;;3.40;99.90;;;;;;5067977;28;20210;-71
2023/04/21 02:53:40;;;;;;;58.13;28.60;;;3.50;99.90;;;;;;5069297;28;20211;-71
2023/04/21 02:56:09;;;;;;;14.03;9.40;;;3.30;99.90;;;;;;5069330;28;20548;-71
2023/04/21 02:58:35;;;;;;;17.00;7.50;;;3.30;99.90;;;;;;5069085;28;20419;-71
2023/04/21 03:01:02;;;;;;;10.75;6.60;;;3.30;99.90;;;;;;5069240;28;20666;-70
2023/04/21 03:03:28;;;;;;;10.50;6.55;;;3.30;99.90;;;;;;5084657;28;20204;-71
2023/04/21 03:05:58;;;;;;;11.20;7.25;;;3.40;99.90;;;;;;5069248;28;20185;-71
2023/04/21 03:08:24;;;;;;;10.77;7.63;;;3.40;99.90;;;;;;5069027;28;20626;-70
2023/04/21 03:10:50;;;;;;;12.87;7.80;;;3.50;99.90;;;;;;5068907;28;20239;-71
2023/04/21 03:13:16;;;;;;;11.77;7.40;;;3.50;99.90;;;;;;5068852;28;20478;-69
2023/04/21 03:15:41;;;;;;;9.30;7.00;;;3.50;99.90;;;;;;5068942;28;20566;-71
2023/04/21 03:18:07;;;;;;;9.10;6.90;;;3.50;99.90;;;;;;5068736;28;20512;-72
2023/04/21 03:20:33;;;;;;;11.37;7.50;;;3.50;99.90;;;;;;5068841;28;20203;-71
2023/04/21 03:22:58;;;;;;;9.20;6.50;;;3.50;99.90;;;;;;5068697;28;20197;-71
2023/04/21 03:25:26;;;;;;;11.13;6.67;;;3.50;99.90;;;;;;5068825;28;20300;-72
2023/04/21 03:27:55;;;;;;;10.45;7.03;;;3.40;99.90;;;;;;5068783;28;20679;-71
2023/04/21 03:30:21;;;;;;;8.47;6.30;;;3.40;99.90;;;;;;5068891;28;20842;-70
2023/04/21 03:32:47;;;;;;;7.40;6.07;;;3.40;99.90;;;;;;5068615;28;20548;-71
2023/04/21 03:35:13;;;;;;;8.70;6.10;;;3.40;99.90;;;;;;5068163;28;20224;-71
2023/04/21 03:37:38;;;;;;;12.27;8.00;;;3.40;99.90;;;;;;5068621;28;20263;-71
2023/04/21 03:40:05;;;;;;;13.13;7.80;;;3.30;99.90;;;;;;5068408;28;20189;-71
2023/04/21 03:42:31;;;;;;;13.07;7.72;;;3.30;99.90;;;;;;5068517;28;20184;-71
2023/04/21 03:45:01;;;;;;;12.15;8.70;;;3.40;99.90;;;;;;5068466;28;20284;-71
2023/04/21 03:47:26;;;;;;;10.48;7.45;;;3.40;99.90;;;;;;5068620;28;20182;-71
2023/04/21 03:49:52;;;;;;;8.80;6.20;;;3.50;99.90;;;;;;5050457;28;20185;-71
2023/04/21 03:52:17;;;;;;;7.67;5.90;;;3.40;99.90;;;;;;5068386;28;20219;-70
2023/04/21 03:54:43;;;;;;;12.10;7.00;;;3.40;99.90;;;;;;5068576;28;20755;-71
2023/04/21 03:57:09;;;;;;;11.07;7.27;;;3.40;99.90;;;;;;5068485;28;20186;-71
2023/04/21 03:59:34;;;;;;;13.47;7.40;;;3.50;99.90;;;;;;5067236;28;20181;-71
2023/04/21 04:02:00;;;;;;;10.10;7.03;;;3.70;99.90;;;;;;5067256;28;20267;-71
2023/04/21 04:04:25;;;;;;;9.73;5.93;;;3.80;99.90;;;;;;5068504;28;20668;-70
2023/04/21 04:06:51;;;;;;;7.27;5.63;;;3.90;99.90;;;;;;5068567;28;20331;-70
2023/04/21 04:09:16;;;;;;;9.50;6.70;;;3.90;99.90;;;;;;5068521;28;20188;-70
2023/04/21 04:11:42;;;;;;;10.87;6.97;;;3.90;99.90;;;;;;5068502;28;20207;-71
2023/04/21 04:14:07;;;;;;;11.63;7.30;;;3.80;99.90;;;;;;5068450;28;20627;-70
2023/04/21 04:16:34;;;;;;;10.23;6.90;;;3.80;99.90;;;;;;5067120;28;20191;-70
2023/04/21 04:19:00;;;;;;;11.07;8.27;;;3.70;99.90;;;;;;5067537;28;20190;-71
2023/04/21 04:21:27;;;;;;;11.20;7.20;;;3.80;99.90;;;;;;5068736;28;20424;-70
2023/04/21 04:23:52;;;;;;;12.73;7.88;;;3.80;99.90;;;;;;5068626;28;20464;-71
2023/04/21 04:26:18;;;;;;;14.90;7.10;;;3.70;99.90;;;;;;5068749;28;20256;-71
2023/04/21 04:28:44;;;;;;;10.93;7.50;;;3.80;99.90;;;;;;5068957;28;20264;-71
2023/04/21 04:31:12;;;;;;;7.55;5.97;;;3.70;99.90;;;;;;5068954;28;20457;-72
2023/04/21 04:33:41;;;;;;;10.88;6.97;;;3.70;99.90;;;;;;5068901;28;20209;-71
2023/04/21 04:36:07;;;;;;;13.37;7.20;;;3.80;99.90;;;;;;5068571;28;20201;-70
2023/04/21 04:38:34;;;;;;;9.80;7.30;;;3.80;99.90;;;;;;5068627;28;20450;-71
2023/04/21 04:41:01;;;;;;;12.32;8.45;;;3.80;99.90;;;;;;5067935;28;20443;-71
2023/04/21 04:43:27;;;;;;;14.82;10.75;;;3.80;99.90;;;;;;5068094;28;20221;-71
2023/04/21 04:45:52;;;;;;;16.90;11.27;;;3.90;99.90;;;;;;5068398;28;20180;-71
2023/04/21 04:48:18;;;;;;;12.97;9.20;;;3.90;99.90;;;;;;5071928;28;20449;-71
2023/04/21 04:50:44;;;;;;;15.17;10.30;;;3.90;99.90;;;;;;5071776;28;20179;-71
2023/04/21 04:53:10;;;;;;;14.00;9.17;;;3.90;99.90;;;;;;5071581;28;20892;-71
2023/04/21 04:55:35;;;;;;;9.83;7.90;;;4.00;99.90;;;;;;5071751;28;20185;-70
2023/04/21 04:58:01;;;;;;;12.20;7.30;;;4.10;99.90;;;;;;5071707;28;20186;-71
2023/04/21 05:00:27;;;;;;;13.13;8.33;;;4.00;99.90;;;;;;5071574;28;20594;-71
2023/04/21 05:02:53;;;;;;;12.90;7.70;;;4.00;99.90;;;;;;5071645;28;20424;-71
2023/04/21 05:05:20;;;;;;;9.60;6.97;;;3.90;99.90;;;;;;5071802;28;20426;-71
2023/04/21 05:07:46;;;;;;;9.32;7.25;;;3.90;99.90;;;;;;5071956;28;20421;-71
2023/04/21 05:10:12;;;;;;;12.10;7.20;;;4.00;99.90;;;;;;5071644;28;20657;-71
2023/04/21 05:12:38;;;;;;;13.23;9.10;;;4.10;99.90;;;;;;5071781;28;20216;-71
2023/04/21 05:15:05;;;;;;;20.43;8.00;;;4.10;99.90;;;;;;5072993;28;20451;-71
2023/04/21 05:17:32;;;;;;;10.23;7.18;;;4.20;99.90;;;;;;5072744;28;20182;-71
2023/04/21 05:19:58;;;;;;;18.47;10.87;;;4.20;99.90;;;;;;5071823;28;20234;-71
2023/04/21 05:22:24;;;;;;;17.30;14.03;;;4.40;99.90;;;;;;5071862;28;21252;-71
2023/04/21 05:24:51;;;;;;;22.23;16.20;;;4.40;99.90;;;;;;5071499;28;20497;-71
2023/04/21 05:27:16;;;;;;;16.58;12.73;;;4.50;99.90;;;;;;5071602;28;20425;-71
2023/04/21 05:29:42;;;;;;;18.80;10.80;;;4.50;99.90;;;;;;5071277;28;20224;-71
2023/04/21 05:32:08;;;;;;;8.47;7.03;;;4.40;99.90;;;;;;5071560;28;20249;-71
2023/04/21 05:34:33;;;;;;;9.50;6.23;;;4.20;99.90;;;;;;5069446;28;20563;-71
2023/04/21 05:36:59;;;;;;;9.43;6.63;;;4.20;99.90;;;;;;5071165;28;20185;-71
2023/04/21 05:39:27;;;;;;;9.40;5.80;;;4.30;99.90;;;;;;5071096;28;20927;-71
2023/04/21 05:41:52;;;;;;;7.70;5.97;;;4.40;99.90;;;;;;5071240;28;20684;-70
2023/04/21 05:44:18;;;;;;;13.23;8.67;;;4.50;99.90;;;;;;5069392;28;20218;-71
2023/04/21 05:46:43;;;;;;;23.83;12.53;;;4.60;99.90;;;;;;5071061;28;20675;-71
2023/04/21 05:49:09;;;;;;;17.03;10.80;;;4.60;99.90;;;;;;5071008;28;20188;-71
2023/04/21 05:51:35;;;;;;;13.47;10.93;;;4.70;99.90;;;;;;5070687;28;20218;-71
2023/04/21 05:54:00;;;;;;;14.63;9.80;;;4.80;99.90;;;;;;5070847;28;20288;-71
2023/04/21 05:56:26;;;;;;;14.93;9.67;;;4.90;99.90;;;;;;5069496;28;20198;-71
2023/04/21 05:58:52;;;;;;;17.00;9.67;;;5.00;99.90;;;;;;5070280;28;20217;-71
2023/04/21 06:01:17;;;;;;;12.73;9.20;;;5.00;99.90;;;;;;5070589;28;20194;-71
2023/04/21 06:03:43;;;;;;;14.53;9.90;;;5.10;99.90;;;;;;5070473;28;20213;-71
2023/04/21 06:06:10;;;;;;;16.43;10.50;;;5.10;99.90;;;;;;5069136;28;20212;-70
2023/04/21 06:08:36;;;;;;;14.10;10.40;;;5.10;99.90;;;;;;5069175;28;20195;-71
2023/04/21 06:11:01;;;;;;;18.60;11.20;;;5.20;99.90;;;;;;5070601;28;20422;-71
2023/04/21 06:13:27;;;;;;;17.43;11.40;;;5.30;99.90;;;;;;5070132;28;20195;-71
2023/04/21 06:15:53;;;;;;;15.97;11.03;;;5.30;99.90;;;;;;5069912;28;20186;-71
2023/04/21 06:18:19;;;;;;;16.27;11.27;;;5.50;99.90;;;;;;5070230;28;20179;-69
2023/04/21 06:20:55;;;;;;;14.10;10.20;;;5.60;99.90;;;;;;5068540;28;20441;-70
2023/04/21 06:23:21;;;;;;;18.53;11.63;;;5.70;99.90;;;;;;5070014;28;20195;-71
2023/04/21 06:26:03;;;;;;;17.20;11.47;;;5.80;99.90;;;;;;5069843;28;21049;-71
2023/04/21 06:28:28;;;;;;;15.17;10.50;;;5.90;99.90;;;;;;5069926;28;21238;-71
2023/04/21 06:30:54;;;;;;;13.17;10.27;;;5.90;99.90;;;;;;5069809;28;20413;-71
2023/04/21 06:33:19;;;;;;;14.10;10.60;;;6.00;99.90;;;;;;5069696;28;20274;-71
2023/04/21 06:35:45;;;;;;;13.40;10.20;;;6.10;99.90;;;;;;5068248;28;20183;-71
2023/04/21 06:38:10;;;;;;;15.17;10.23;;;6.20;99.90;;;;;;5069647;28;20188;-71
2023/04/21 06:40:36;;;;;;;12.30;9.87;;;6.30;99.90;;;;;;5069598;28;20233;-71
2023/04/21 06:43:02;;;;;;;14.07;9.97;;;6.20;99.90;;;;;;5069599;28;20183;-70
2023/04/21 06:45:27;;;;;;;16.03;11.33;;;6.20;99.90;;;;;;5069469;28;20187;-70
2023/04/21 06:47:53;;;;;;;16.20;11.07;;;6.30;99.90;;;;;;5069437;28;20213;-70
2023/04/21 06:50:18;;;;;;;15.70;10.63;;;6.20;99.90;;;;;;5067931;28;20746;-70
2023/04/21 06:52:44;;;;;;;18.27;11.67;;;6.30;99.90;;;;;;5069353;28;20298;-70
2023/04/21 06:55:10;;;;;;;16.37;10.07;;;6.40;99.90;;;;;;5069267;28;20205;-70
2023/04/21 06:57:36;;;;;;;13.77;10.80;;;6.50;99.90;;;;;;5067576;28;20187;-71
2023/04/21 07:00:04;;;;;;;13.90;10.97;;;6.50;99.90;;;;;;5067666;28;20183;-70
2023/04/21 07:02:30;;;;;;;14.93;9.97;;;6.60;99.90;;;;;;5069192;28;20920;-70
2023/04/21 07:04:55;;;;;;;16.63;11.03;;;6.70;99.90;;;;;;5068907;28;20556;-70
2023/04/21 07:07:21;;;;;;;15.70;12.57;;;6.70;99.90;;;;;;5069267;28;20191;-70
2023/04/21 07:09:47;;;;;;;17.10;12.03;;;6.60;99.90;;;;;;5068448;28;20183;-70
2023/04/21 07:12:13;;;;;;;20.70;13.23;;;6.60;99.90;;;;;;5069139;28;20210;-70
2023/04/21 07:14:38;;;;;;;19.50;12.37;;;6.60;99.90;;;;;;5068910;28;20444;-70
2023/04/21 07:17:04;;;;;;;19.03;13.27;;;6.70;99.90;;;;;;5084326;28;20186;-70
2023/04/21 07:19:30;;;;;;;19.80;12.90;;;6.70;99.90;;;;;;5068710;28;20561;-70
2023/04/21 07:21:57;;;;;;;17.97;12.77;;;6.70;99.90;;;;;;5068959;28;20406;-71
2023/04/21 07:24:22;;;;;;;18.53;13.90;;;6.70;99.90;;;;;;5067337;28;20202;-70
2023/04/21 07:26:48;;;;;;;26.23;13.50;;;6.80;99.90;;;;;;5068789;28;20425;-71
2023/04/21 07:29:13;;;;;;;22.03;15.13;;;6.80;99.90;;;;;;5068921;28;20212;-70
2023/04/21 07:31:39;;;;;;;20.03;13.30;;;6.90;99.90;;;;;;5068820;28;20277;-70
2023/04/21 07:34:05;;;;;;;16.80;13.40;;;7.00;99.90;;;;;;5068921;28;20209;-70
2023/04/21 07:36:30;;;;;;;20.43;13.80;;;7.10;99.90;;;;;;5069161;28;20226;-71
2023/04/21 07:38:56;;;;;;;21.00;14.37;;;7.20;99.90;;;;;;5067586;28;20186;-72
2023/04/21 07:41:22;;;;;;;18.00;12.60;;;7.30;99.90;;;;;;5069133;28;20305;-71
2023/04/21 07:43:47;;;;;;;18.37;13.20;;;7.40;99.90;;;;;;5069269;28;20207;-71
2023/04/21 07:46:13;;;;;;;16.80;12.47;;;7.50;99.90;;;;;;5069353;28;20181;-71
2023/04/21 07:48:39;;;;;;;17.80;13.00;;;7.70;99.90;;;;;;5069543;28;20178;-71
2023/04/21 07:51:05;;;;;;;17.07;12.43;;;7.80;99.90;;;;;;5069053;28;20187;-70
2023/04/21 07:53:31;;;;;;;22.57;12.80;;;8.00;99.90;;;;;;5069004;28;20428;-71
2023/04/21 07:55:57;;;;;;;17.20;12.43;;;8.20;99.90;;;;;;5069218;28;20414;-71
2023/04/21 07:58:23;;;;;;;16.37;12.57;;;8.30;99.90;;;;;;5069011;28;20180;-71
2023/04/21 08:00:49;;;;;;;12.70;10.40;;;8.40;99.90;;;;;;5068803;28;20435;-70
2023/04/21 08:03:15;;;;;;;12.13;10.03;;;8.80;99.90;;;;;;5068524;28;20957;-70
2023/04/21 08:05:40;;;;;;;14.73;10.83;;;9.20;99.90;;;;;;5068692;28;20421;-70
2023/04/21 08:08:06;;;;;;;12.80;9.80;;;9.50;99.90;;;;;;5068694;28;20501;-70
2023/04/21 08:10:32;;;;;;;11.60;9.10;;;9.80;99.90;;;;;;5068562;28;20665;-70
2023/04/21 08:12:58;;;;;;;10.30;9.03;;;9.90;99.90;;;;;;5068329;28;20348;-70
2023/04/21 08:15:24;;;;;;;12.77;9.40;;;10.10;99.90;;;;;;5068444;28;20517;-70
2023/04/21 08:17:50;;;;;;;14.37;9.50;;;10.60;99.90;;;;;;5068149;28;20175;-71
2023/04/21 08:20:16;;;;;;;9.70;8.70;;;10.90;99.90;;;;;;5069352;28;20176;-71
2023/04/21 08:22:41;;;;;;;11.33;9.00;;;11.30;99.90;;;;;;5072242;28;20546;-70
2023/04/21 08:25:07;;;;;;;15.13;10.93;;;11.50;99.90;;;;;;5072335;28;20952;-71
2023/04/21 08:27:36;;;;;;;20.53;11.77;;;11.90;99.90;;;;;;5072074;28;20198;-71
2023/04/21 08:30:01;;;;;;;13.50;9.70;;;11.90;99.90;;;;;;5072066;28;20232;-71
2023/04/21 08:32:27;;;;;;;11.20;8.93;;;12.10;99.90;;;;;;5071926;28;20465;-70
2023/04/21 08:34:53;;;;;;;15.63;9.07;;;12.30;99.90;;;;;;5072075;28;20261;-70
2023/04/21 08:37:20;;;;;;;9.77;8.23;;;12.40;99.90;;;;;;5072078;28;20732;-70
2023/04/21 08:39:46;;;;;;;11.30;9.00;;;12.60;99.90;;;;;;5072006;28;20471;-71
2023/04/21 08:42:16;;;;;;;10.80;8.47;;;12.90;99.90;;;;;;5071744;28;20422;-70
2023/04/21 08:44:42;;;;;;;8.67;7.20;;;13.30;99.90;;;;;;5071986;28;20791;-71
2023/04/21 08:47:13;;;;;;;9.67;7.60;;;13.50;99.90;;;;;;5071558;28;20473;-71
2023/04/21 08:49:40;;;;;;;9.27;7.30;;;13.70;99.90;;;;;;5071798;28;20188;-71
2023/04/21 08:52:06;;;;;;;7.93;7.03;;;13.90;99.90;;;;;;5070332;28;20471;-71
2023/04/21 08:54:32;;;;;;;10.50;7.77;;;14.10;99.90;;;;;;5070266;28;20443;-71
2023/04/21 08:56:59;;;;;;;11.23;9.30;;;14.10;99.90;;;;;;5071537;28;20462;-71
2023/04/21 08:59:24;;;;;;;10.10;8.10;;;14.30;99.90;;;;;;5071642;28;20416;-71
2023/04/21 09:02:13;;;;;;;11.00;7.43;;;14.40;99.90;;;;;;5071476;28;20789;-70
2023/04/21 09:04:54;;;;;;;9.20;7.33;;;14.60;99.90;;;;;;5071417;28;20216;-70
2023/04/21 09:07:34;;;;;;;8.60;7.27;;;14.90;99.90;;;;;;5071460;28;20919;-71
2023/04/21 09:10:00;;;;;;;10.33;6.93;;;15.00;99.90;;;;;;5071545;28;20419;-70
2023/04/21 09:12:26;;;;;;;6.90;6.20;;;15.20;99.90;;;;;;5071409;28;20460;-70
2023/04/21 09:14:52;;;;;;;7.23;6.30;;;15.40;99.90;;;;;;5071500;28;20433;-69
2023/04/21 09:17:22;;;;;;;6.00;5.40;;;15.60;99.90;;;;;;5071509;28;21217;-71
2023/04/21 09:19:47;;;;;;;7.27;5.00;;;15.90;99.90;;;;;;5071357;28;20421;-71
2023/04/21 09:22:17;;;;;;;6.60;5.30;;;16.30;99.90;;;;;;5071099;28;20413;-71
2023/04/21 09:24:57;;;;;;;5.63;4.93;;;16.60;99.90;;;;;;5071194;28;20206;-70
2023/04/21 09:27:22;;;;;;;6.70;5.30;;;16.70;97.50;;;;;;5072416;28;20417;-71
2023/04/21 09:29:48;;;;;;;6.30;5.50;;;16.90;98.80;;;;;;5073325;28;20848;-71
2023/04/21 09:32:18;;;;;;;7.53;5.77;;;17.10;97.70;;;;;;5071137;28;20251;-71
2023/04/21 09:34:44;;;;;;;7.50;6.70;;;17.40;97.70;;;;;;5072399;28;20288;-71
2023/04/21 09:37:12;;;;;;;8.10;6.47;;;17.80;98.60;;;;;;5071714;28;20405;-70
2023/04/21 09:39:37;;;;;;;12.80;6.30;;;18.00;96.00;;;;;;5069991;28;20487;-70
2023/04/21 09:42:03;;;;;;;7.30;5.67;;;18.20;94.90;;;;;;5071241;28;20427;-70
2023/04/21 09:44:29;;;;;;;7.97;5.60;;;18.20;94.90;;;;;;5070882;28;20295;-70
2023/04/21 09:47:01;;;;;;;9.00;6.47;;;18.50;96.60;;;;;;5070717;28;20228;-70
2023/04/21 09:49:32;;;;;;;9.33;6.10;;;18.70;94.20;;;;;;5070929;28;20429;-70
2023/04/21 09:51:59;;;;;;;7.10;6.40;;;18.90;93.20;;;;;;5070566;28;20456;-71
2023/04/21 09:54:29;;;;;;;9.63;6.60;;;19.10;93.40;;;;;;5070592;28;20570;-70
2023/04/21 09:56:58;;;;;;;7.53;6.60;;;19.10;93.90;;;;;;5070873;28;20407;-71
2023/04/21 09:59:39;;;;;;;8.30;6.87;;;19.10;91.90;;;;;;5070722;28;20424;-70
2023/04/21 10:02:06;;;;;;;8.63;6.90;;;19.10;93.10;;;;;;5070525;28;21232;-71
2023/04/21 10:04:33;;;;;;;13.63;7.77;;;19.40;95.20;;;;;;5070354;28;20438;-71
2023/04/21 10:07:00;;;;;;;9.57;6.90;;;19.50;91.60;;;;;;5070308;28;20990;-71
2023/04/21 10:09:33;;;;;;;8.67;7.60;;;19.30;91.70;;;;;;5070354;28;20421;-70
2023/04/21 10:12:01;;;;;;;8.23;6.73;;;19.50;92.80;;;;;;5070375;28;20460;-71
2023/04/21 10:14:27;;;;;;;8.83;7.40;;;19.70;92.50;;;;;;5085461;28;20469;-71
2023/04/21 10:17:11;;;;;;;9.40;7.80;;;19.90;91.40;;;;;;5070314;28;20450;-71
2023/04/21 10:19:48;;;;;;;8.73;7.83;;;19.90;91.60;;;;;;5070206;28;20185;-70
2023/04/21 10:22:13;;;;;;;8.00;6.60;;;20.00;91.60;;;;;;5070560;28;20411;-71
2023/04/21 10:24:40;;;;;;;7.80;6.80;;;20.10;92.10;;;;;;5070082;28;20445;-71
2023/04/21 10:27:10;;;;;;;7.63;6.83;;;20.30;91.20;;;;;;5069981;28;20181;-71
2023/04/21 10:29:36;;;;;;;9.80;8.20;;;20.50;92.00;;;;;;5069966;28;20413;-71
2023/04/21 10:32:03;;;;;;;10.70;8.20;;;20.70;90.30;;;;;;5069684;28;20475;-71
2023/04/21 10:34:33;;;;;;;10.23;8.60;;;20.70;90.70;;;;;;5069758;28;20431;-71
2023/04/21 10:36:59;;;;;;;9.00;7.87;;;21.00;90.50;;;;;;5069655;28;20458;-71
2023/04/21 10:39:35;;;;;;;10.77;8.73;;;21.10;88.70;;;;;;5069394;28;20789;-71
2023/04/21 10:42:18;;;;;;;10.90;8.17;;;21.20;90.60;;;;;;5069599;28;20185;-72
2023/04/21 10:45:03;;;;;;;9.60;8.60;;;21.40;88.30;;;;;;5068752;28;20447;-71
2023/04/21 10:47:35;;;;;;;13.73;9.57;;;21.40;90.40;;;;;;5069440;28;20471;-71
2023/04/21 10:50:14;;;;;;;13.40;9.30;;;21.50;90.30;;;;;;5069334;28;20437;-71
2023/04/21 10:53:07;;;;;;;10.73;9.30;;;21.80;90.30;;;;;;5069576;28;20457;-71
2023/04/21 10:55:32;;;;;;;10.93;9.70;;;21.80;90.30;;;;;;5068725;28;20417;-70
2023/04/21 10:58:02;;;;;;;11.70;9.60;;;21.80;88.10;;;;;;5069137;28;20422;-71
2023/04/21 11:00:28;;;;;;;14.40;9.70;;;21.90;87.70;;;;;;5069051;28;20175;-71
2023/04/21 11:03:04;;;;;;;11.57;8.87;;;22.00;87.70;;;;;;5069696;28;20413;-71
2023/04/21 11:05:34;;;;;;;11.80;9.87;;;22.10;89.40;;;;;;5069642;28;20500;-71
2023/04/21 11:08:05;;;;;;;10.07;9.03;;;22.20;88.30;;;;;;5069332;28;20417;-70
2023/04/21 11:10:54;;;;;;;11.50;10.03;;;22.20;88.30;;;;;;5069122;28;20928;-71
2023/04/21 11:13:26;;;;;;;11.10;9.07;;;22.20;84.90;;;;;;5069182;28;20506;-71
2023/04/21 11:15:56;;;;;;;8.93;7.97;;;22.30;87.20;;;;;;5068985;28;20442;-71
2023/04/21 11:18:32;;;;;;;11.30;8.90;;;22.40;90.30;;;;;;5069666;28;20492;-71
2023/04/21 11:21:08;;;;;;;10.87;9.77;;;22.40;87.50;;;;;;5069231;28;20405;-72
2023/04/21 11:23:35;;;;;;;10.93;8.93;;;22.60;85.00;;;;;;5068993;28;21252;-71
2023/04/21 11:26:00;;;;;;;16.90;9.87;;;22.60;86.10;;;;;;5069336;28;20771;-72
2023/04/21 11:28:26;;;;;;;10.00;8.97;;;22.60;84.40;;;;;;5069150;28;20423;-71
2023/04/21 11:30:51;;;;;;;8.77;7.70;;;22.70;84.00;;;;;;5068901;28;20562;-71
2023/04/21 11:33:17;;;;;;;10.73;9.47;;;23.00;84.60;;;;;;5067628;28;20225;-71
2023/04/21 11:35:43;;;;;;;10.60;8.80;;;23.00;84.10;;;;;;5069077;28;20257;-71
2023/04/21 11:38:09;;;;;;;10.17;8.60;;;22.70;85.00;;;;;;5070082;28;20211;-71
2023/04/21 11:40:47;;;;;;;10.07;8.43;;;22.80;84.40;;;;;;5069329;28;20201;-71
2023/04/21 11:43:13;;;;;;;10.00;8.27;;;22.80;83.70;;;;;;5068965;28;20442;-71
2023/04/21 11:45:41;;;;;;;8.90;8.00;;;23.00;84.90;;;;;;5069053;28;20423;-71
2023/04/21 11:48:18;;;;;;;10.40;8.70;;;23.20;82.40;;;;;;5068996;28;20213;-69
2023/04/21 11:50:50;;;;;;;10.40;9.30;;;22.90;79.50;;;;;;5068658;28;20419;-70
2023/04/21 11:53:16;;;;;;;9.23;7.87;;;22.70;81.30;;;;;;5068596;28;20500;-70
2023/04/21 11:55:44;;;;;;;11.77;8.40;;;23.00;86.20;;;;;;5071766;28;20450;-71
2023/04/21 11:58:11;;;;;;;7.10;6.40;;;23.20;82.50;;;;;;5075583;28;20500;-70
2023/04/21 12:00:36;;;;;;;7.17;6.43;;;23.20;81.20;;;;;;5075210;28;20468;-70
2023/04/21 12:03:07;;;;;;;7.07;6.30;;;23.30;84.70;;;;;;5075394;28;20421;-70
2023/04/21 12:05:35;;;;;;;6.60;6.00;;;23.00;80.00;;;;;;5075345;28;20236;-70
2023/04/21 12:08:02;;;;;;;6.60;6.00;;;23.20;83.50;;;;;;5075192;28;20448;-71
2023/04/21 12:10:28;;;;;;;7.83;7.10;;;23.10;82.20;;;;;;5075291;28;20452;-71
2023/04/21 12:12:55;;;;;;;6.50;5.80;;;23.20;78.60;;;;;;5075250;28;20504;-71
2023/04/21 12:15:22;;;;;;;6.83;5.93;;;23.30;78.70;;;;;;5074969;28;20409;-71
2023/04/21 12:17:54;;;;;;;8.53;5.47;;;23.50;78.70;;;;;;5075060;28;20416;-71
2023/04/21 12:20:25;;;;;;;6.30;5.70;;;23.70;79.50;;;;;;5075125;28;20420;-72
2023/04/21 12:22:52;;;;;;;5.80;5.30;;;23.30;79.50;;;;;;5074909;28;20424;-72
2023/04/21 12:25:17;;;;;;;4.97;4.47;;;23.40;77.60;;;;;;5075082;28;20448;-71
2023/04/21 12:27:50;;;;;;;5.30;4.80;;;23.50;79.90;;;;;;5075056;28;20413;-71
2023/04/21 12:30:16;;;;;;;4.60;4.20;;;23.50;77.50;;;;;;5074827;28;20263;-70
2023/04/21 12:32:42;;;;;;;4.90;4.17;;;23.70;78.30;;;;;;5074886;28;20556;-70
2023/04/21 12:35:08;;;;;;;5.23;4.73;;;23.90;77.40;;;;;;5074779;28;20437;-69
2023/04/21 12:37:33;;;;;;;5.67;3.70;;;23.80;76.30;;;;;;5074982;28;20270;-71
2023/04/21 12:39:59;;;;;;;5.27;4.13;;;23.80;77.20;;;;;;5074748;28;20437;-71
2023/04/21 12:42:25;;;;;;;5.23;4.33;;;23.80;76.20;;;;;;5074930;28;20277;-72
2023/04/21 12:44:50;;;;;;;5.63;4.30;;;23.80;78.50;;;;;;5074702;28;20218;-69